sensor_id;sensor_type;location;lat;lon;timestamp;temperature;humidity
66710;DHT22;53624;0.000;0.000;2024-02-26T00:02:21;12.90;97.40
66710;DHT22;53624;0.000;0.000;2024-02-26T00:04:48;12.90;97.50
66710;DHT22;53624;0.000;0.000;2024-02-26T00:07:15;12.90;97.60
66710;DHT22;53624;0.000;0.000;2024-02-26T00:09:43;12.90;97.60
66710;DHT22;53624;0.000;0.000;2024-02-26T00:12:10;12.90;97.70
66710;DHT22;53624;0.000;0.000;2024-02-26T00:14:39;12.90;97.70
66710;DHT22;53624;0.000;0.000;2024-02-26T00:17:07;12.90;97.80
66710;DHT22;53624;0.000;0.000;2024-02-26T00:19:35;12.90;97.80
66710;DHT22;53624;0.000;0.000;2024-02-26T00:22:02;12.80;97.90
66710;DHT22;53624;0.000;0.000;2024-02-26T00:24:29;12.80;97.90
66710;DHT22;53624;0.000;0.000;2024-02-26T00:26:56;12.80;98.00
66710;DHT22;53624;0.000;0.000;2024-02-26T00:29:23;12.80;98.00
66710;DHT22;53624;0.000;0.000;2024-02-26T00:31:52;12.80;98.10
66710;DHT22;53624;0.000;0.000;2024-02-26T00:34:20;12.80;98.10
66710;DHT22;53624;0.000;0.000;2024-02-26T00:36:47;12.80;98.10
66710;DHT22;53624;0.000;0.000;2024-02-26T00:39:14;12.80;98.20
66710;DHT22;53624;0.000;0.000;2024-02-26T00:41:41;12.80;98.20
66710;DHT22;53624;0.000;0.000;2024-02-26T00:44:08;12.80;98.20
66710;DHT22;53624;0.000;0.000;2024-02-26T00:46:35;12.80;98.30
66710;DHT22;53624;0.000;0.000;2024-02-26T00:49:04;12.80;98.30
66710;DHT22;53624;0.000;0.000;2024-02-26T00:51:31;12.80;98.40
66710;DHT22;53624;0.000;0.000;2024-02-26T00:53:58;12.70;98.40
66710;DHT22;53624;0.000;0.000;2024-02-26T00:56:25;12.70;98.50
66710;DHT22;53624;0.000;0.000;2024-02-26T00:58:53;12.70;98.50
66710;DHT22;53624;0.000;0.000;2024-02-26T01:01:20;12.70;98.50
66710;DHT22;53624;0.000;0.000;2024-02-26T01:03:47;12.70;98.60
66710;DHT22;53624;0.000;0.000;2024-02-26T01:06:16;12.70;98.60
66710;DHT22;53624;0.000;0.000;2024-02-26T01:08:43;12.70;98.70
66710;DHT22;53624;0.000;0.000;2024-02-26T01:11:10;12.70;98.70
66710;DHT22;53624;0.000;0.000;2024-02-26T01:13:37;12.70;98.80
66710;DHT22;53624;0.000;0.000;2024-02-26T01:16:04;12.70;98.90
66710;DHT22;53624;0.000;0.000;2024-02-26T01:18:32;12.60;98.90
66710;DHT22;53624;0.000;0.000;2024-02-26T01:20:59;12.60;98.90
66710;DHT22;53624;0.000;0.000;2024-02-26T01:23:27;12.60;98.90
66710;DHT22;53624;0.000;0.000;2024-02-26T01:25:55;12.60;99.00
66710;DHT22;53624;0.000;0.000;2024-02-26T01:28:22;12.60;99.00
66710;DHT22;53624;0.000;0.000;2024-02-26T01:30:49;12.60;99.10
66710;DHT22;53624;0.000;0.000;2024-02-26T01:33:16;12.60;99.10
66710;DHT22;53624;0.000;0.000;2024-02-26T01:35:43;12.60;99.20
66710;DHT22;53624;0.000;0.000;2024-02-26T01:38:10;12.60;99.20
66710;DHT22;53624;0.000;0.000;2024-02-26T01:40:39;12.60;99.20
66710;DHT22;53624;0.000;0.000;2024-02-26T01:43:06;12.60;99.30
66710;DHT22;53624;0.000;0.000;2024-02-26T01:45:33;12.50;99.30
66710;DHT22;53624;0.000;0.000;2024-02-26T01:48:00;12.50;99.30
66710;DHT22;53624;0.000;0.000;2024-02-26T01:50:28;12.50;99.30
66710;DHT22;53624;0.000;0.000;2024-02-26T01:52:55;12.50;99.40
66710;DHT22;53624;0.000;0.000;2024-02-26T01:55:24;12.50;99.40
66710;DHT22;53624;0.000;0.000;2024-02-26T01:57:53;12.50;99.40
66710;DHT22;53624;0.000;0.000;2024-02-26T02:00:20;12.50;99.50
66710;DHT22;53624;0.000;0.000;2024-02-26T02:02:48;12.50;99.50
66710;DHT22;53624;0.000;0.000;2024-02-26T02:05:15;12.50;99.50
66710;DHT22;53624;0.000;0.000;2024-02-26T02:07:43;12.50;99.60
66710;DHT22;53624;0.000;0.000;2024-02-26T02:10:11;12.50;99.60
66710;DHT22;53624;0.000;0.000;2024-02-26T02:12:38;12.50;99.70
66710;DHT22;53624;0.000;0.000;2024-02-26T02:15:07;12.50;99.70
66710;DHT22;53624;0.000;0.000;2024-02-26T02:17:34;12.50;99.70
66710;DHT22;53624;0.000;0.000;2024-02-26T02:20:02;12.50;99.80
66710;DHT22;53624;0.000;0.000;2024-02-26T02:22:31;12.50;99.80
66710;DHT22;53624;0.000;0.000;2024-02-26T02:24:59;12.50;99.80
66710;DHT22;53624;0.000;0.000;2024-02-26T02:27:26;12.50;99.80
66710;DHT22;53624;0.000;0.000;2024-02-26T02:29:54;12.40;99.80
66710;DHT22;53624;0.000;0.000;2024-02-26T02:32:21;12.40;99.90
66710;DHT22;53624;0.000;0.000;2024-02-26T02:34:48;12.50;99.90
66710;DHT22;53624;0.000;0.000;2024-02-26T02:37:15;12.50;99.90
66710;DHT22;53624;0.000;0.000;2024-02-26T02:39:44;12.40;99.90
66710;DHT22;53624;0.000;0.000;2024-02-26T02:42:11;12.40;99.90
66710;DHT22;53624;0.000;0.000;2024-02-26T02:44:39;12.40;99.90
66710;DHT22;53624;0.000;0.000;2024-02-26T02:47:06;12.40;99.90
66710;DHT22;53624;0.000;0.000;2024-02-26T02:49:33;12.40;99.90
66710;DHT22;53624;0.000;0.000;2024-02-26T02:52:00;12.40;99.90
66710;DHT22;53624;0.000;0.000;2024-02-26T02:54:27;12.40;99.90
66710;DHT22;53624;0.000;0.000;2024-02-26T02:56:56;12.40;99.90
66710;DHT22;53624;0.000;0.000;2024-02-26T02:59:23;12.40;99.90
66710;DHT22;53624;0.000;0.000;2024-02-26T03:01:50;12.40;99.90
66710;DHT22;53624;0.000;0.000;2024-02-26T03:04:18;12.40;99.90
66710;DHT22;53624;0.000;0.000;2024-02-26T03:06:45;12.40;99.90
66710;DHT22;53624;0.000;0.000;2024-02-26T03:09:12;12.40;99.90
66710;DHT22;53624;0.000;0.000;2024-02-26T03:11:40;12.40;99.90
66710;DHT22;53624;0.000;0.000;2024-02-26T03:14:08;12.30;99.90
66710;DHT22;53624;0.000;0.000;2024-02-26T03:16:35;12.30;99.90
66710;DHT22;53624;0.000;0.000;2024-02-26T03:19:03;12.30;99.90
66710;DHT22;53624;0.000;0.000;2024-02-26T03:21:30;12.30;99.90
66710;DHT22;53624;0.000;0.000;2024-02-26T03:23:57;12.30;99.90
66710;DHT22;53624;0.000;0.000;2024-02-26T03:26:24;12.30;99.90
66710;DHT22;53624;0.000;0.000;2024-02-26T03:28:51;12.30;99.90
66710;DHT22;53624;0.000;0.000;2024-02-26T03:31:20;12.30;99.90
66710;DHT22;53624;0.000;0.000;2024-02-26T03:33:47;12.30;99.90
66710;DHT22;53624;0.000;0.000;2024-02-26T03:36:14;12.30;99.90
66710;DHT22;53624;0.000;0.000;2024-02-26T03:38:42;12.30;99.90
66710;DHT22;53624;0.000;0.000;2024-02-26T03:41:09;12.30;99.90
66710;DHT22;53624;0.000;0.000;2024-02-26T03:43:36;12.30;99.90
66710;DHT22;53624;0.000;0.000;2024-02-26T03:46:03;12.20;99.90
66710;DHT22;53624;0.000;0.000;2024-02-26T03:48:32;12.30;99.90
66710;DHT22;53624;0.000;0.000;2024-02-26T03:50:59;12.30;99.90
66710;DHT22;53624;0.000;0.000;2024-02-26T03:53:26;12.30;99.90
66710;DHT22;53624;0.000;0.000;2024-02-26T03:55:53;12.30;99.90
66710;DHT22;53624;0.000;0.000;2024-02-26T03:58:21;12.30;99.90
66710;DHT22;53624;0.000;0.000;2024-02-26T04:00:48;12.20;99.90
66710;DHT22;53624;0.000;0.000;2024-02-26T04:03:15;12.20;99.90
66710;DHT22;53624;0.000;0.000;2024-02-26T04:05:44;12.30;99.90
66710;DHT22;53624;0.000;0.000;2024-02-26T04:08:11;12.30;99.90
66710;DHT22;53624;0.000;0.000;2024-02-26T04:10:38;12.20;99.90
66710;DHT22;53624;0.000;0.000;2024-02-26T04:13:06;12.20;99.90
66710;DHT22;53624;0.000;0.000;2024-02-26T04:15:34;12.20;99.90
66710;DHT22;53624;0.000;0.000;2024-02-26T04:18:01;12.20;99.90
66710;DHT22;53624;0.000;0.000;2024-02-26T04:20:29;12.20;99.90
66710;DHT22;53624;0.000;0.000;2024-02-26T04:22:57;12.20;99.90
66710;DHT22;53624;0.000;0.000;2024-02-26T04:25:24;12.20;99.90
66710;DHT22;53624;0.000;0.000;2024-02-26T04:27:51;12.20;99.90
66710;DHT22;53624;0.000;0.000;2024-02-26T04:30:19;12.20;99.90
66710;DHT22;53624;0.000;0.000;2024-02-26T04:32:46;12.20;99.90
66710;DHT22;53624;0.000;0.000;2024-02-26T04:35:13;12.20;99.90
66710;DHT22;53624;0.000;0.000;2024-02-26T04:37:40;12.20;99.90
66710;DHT22;53624;0.000;0.000;2024-02-26T04:40:09;12.20;99.90
66710;DHT22;53624;0.000;0.000;2024-02-26T04:42:36;12.20;99.90
66710;DHT22;53624;0.000;0.000;2024-02-26T04:45:04;12.20;99.90
66710;DHT22;53624;0.000;0.000;2024-02-26T04:47:31;12.20;99.90
66710;DHT22;53624;0.000;0.000;2024-02-26T04:49:58;12.10;99.90
66710;DHT22;53624;0.000;0.000;2024-02-26T04:52:25;12.10;99.90
66710;DHT22;53624;0.000;0.000;2024-02-26T04:54:52;12.10;99.90
66710;DHT22;53624;0.000;0.000;2024-02-26T04:57:21;12.10;99.90
66710;DHT22;53624;0.000;0.000;2024-02-26T04:59:48;12.10;99.90
66710;DHT22;53624;0.000;0.000;2024-02-26T05:02:16;12.10;99.90
66710;DHT22;53624;0.000;0.000;2024-02-26T05:04:43;12.10;99.90
66710;DHT22;53624;0.000;0.000;2024-02-26T05:07:10;12.10;99.90
66710;DHT22;53624;0.000;0.000;2024-02-26T05:09:38;12.10;99.90
66710;DHT22;53624;0.000;0.000;2024-02-26T05:12:05;12.10;99.90
66710;DHT22;53624;0.000;0.000;2024-02-26T05:14:34;12.10;99.90
66710;DHT22;53624;0.000;0.000;2024-02-26T05:17:01;12.10;99.90
66710;DHT22;53624;0.000;0.000;2024-02-26T05:19:28;12.10;99.90
66710;DHT22;53624;0.000;0.000;2024-02-26T05:21:55;12.10;99.90
66710;DHT22;53624;0.000;0.000;2024-02-26T05:24:23;12.00;99.90
66710;DHT22;53624;0.000;0.000;2024-02-26T05:26:50;12.10;99.90
66710;DHT22;53624;0.000;0.000;2024-02-26T05:29:17;12.00;99.90
66710;DHT22;53624;0.000;0.000;2024-02-26T05:31:45;12.00;99.90
66710;DHT22;53624;0.000;0.000;2024-02-26T05:34:13;12.10;99.90
66710;DHT22;53624;0.000;0.000;2024-02-26T05:36:40;12.00;99.90
66710;DHT22;53624;0.000;0.000;2024-02-26T05:39:07;12.00;99.90
66710;DHT22;53624;0.000;0.000;2024-02-26T05:41:36;12.00;99.90
66710;DHT22;53624;0.000;0.000;2024-02-26T05:44:04;12.00;99.90
66710;DHT22;53624;0.000;0.000;2024-02-26T05:46:31;12.00;99.90
66710;DHT22;53624;0.000;0.000;2024-02-26T05:48:59;12.00;99.90
66710;DHT22;53624;0.000;0.000;2024-02-26T05:51:27;12.00;99.90
66710;DHT22;53624;0.000;0.000;2024-02-26T05:53:54;12.00;99.90
66710;DHT22;53624;0.000;0.000;2024-02-26T05:56:21;12.00;99.90
66710;DHT22;53624;0.000;0.000;2024-02-26T05:58:48;12.00;99.90
66710;DHT22;53624;0.000;0.000;2024-02-26T06:01:16;12.00;99.90
66710;DHT22;53624;0.000;0.000;2024-02-26T06:03:43;11.90;99.90
66710;DHT22;53624;0.000;0.000;2024-02-26T06:06:12;12.00;99.90
66710;DHT22;53624;0.000;0.000;2024-02-26T06:08:40;12.00;99.90
66710;DHT22;53624;0.000;0.000;2024-02-26T06:11:08;12.00;99.90
66710;DHT22;53624;0.000;0.000;2024-02-26T06:13:35;12.00;99.90
66710;DHT22;53624;0.000;0.000;2024-02-26T06:16:02;12.00;99.90
66710;DHT22;53624;0.000;0.000;2024-02-26T06:18:30;11.90;99.90
66710;DHT22;53624;0.000;0.000;2024-02-26T06:20:57;11.90;99.90
66710;DHT22;53624;0.000;0.000;2024-02-26T06:23:26;11.90;99.90
66710;DHT22;53624;0.000;0.000;2024-02-26T06:25:54;11.90;99.90
66710;DHT22;53624;0.000;0.000;2024-02-26T06:28:21;11.90;99.90
66710;DHT22;53624;0.000;0.000;2024-02-26T06:30:49;11.90;99.90
66710;DHT22;53624;0.000;0.000;2024-02-26T06:33:16;11.90;99.90
66710;DHT22;53624;0.000;0.000;2024-02-26T06:35:43;11.90;99.90
66710;DHT22;53624;0.000;0.000;2024-02-26T06:38:10;11.90;99.90
66710;DHT22;53624;0.000;0.000;2024-02-26T06:40:40;11.90;99.90
66710;DHT22;53624;0.000;0.000;2024-02-26T06:43:08;11.90;99.90
66710;DHT22;53624;0.000;0.000;2024-02-26T06:45:35;11.90;99.90
66710;DHT22;53624;0.000;0.000;2024-02-26T06:48:02;11.90;99.90
66710;DHT22;53624;0.000;0.000;2024-02-26T06:50:29;11.90;99.90
66710;DHT22;53624;0.000;0.000;2024-02-26T06:52:57;11.90;99.90
66710;DHT22;53624;0.000;0.000;2024-02-26T06:55:24;11.90;99.90
66710;DHT22;53624;0.000;0.000;2024-02-26T06:57:52;11.90;99.90
66710;DHT22;53624;0.000;0.000;2024-02-26T07:00:19;11.90;99.90
66710;DHT22;53624;0.000;0.000;2024-02-26T07:02:47;11.90;99.90
66710;DHT22;53624;0.000;0.000;2024-02-26T07:05:14;11.90;99.90
66710;DHT22;53624;0.000;0.000;2024-02-26T07:07:41;11.90;99.90
66710;DHT22;53624;0.000;0.000;2024-02-26T07:10:08;11.90;99.90
66710;DHT22;53624;0.000;0.000;2024-02-26T07:12:38;11.90;99.90
66710;DHT22;53624;0.000;0.000;2024-02-26T07:15:07;12.00;99.90
66710;DHT22;53624;0.000;0.000;2024-02-26T07:17:34;12.00;99.90
66710;DHT22;53624;0.000;0.000;2024-02-26T07:20:02;12.00;99.90
66710;DHT22;53624;0.000;0.000;2024-02-26T07:22:30;12.10;99.90
66710;DHT22;53624;0.000;0.000;2024-02-26T07:24:57;12.10;99.90
66710;DHT22;53624;0.000;0.000;2024-02-26T07:27:24;12.10;99.90
66710;DHT22;53624;0.000;0.000;2024-02-26T07:29:51;12.20;99.90
66710;DHT22;53624;0.000;0.000;2024-02-26T07:32:20;12.20;99.90
66710;DHT22;53624;0.000;0.000;2024-02-26T07:34:48;12.20;99.90
66710;DHT22;53624;0.000;0.000;2024-02-26T07:37:15;12.20;99.90
66710;DHT22;53624;0.000;0.000;2024-02-26T07:39:43;12.20;99.90
66710;DHT22;53624;0.000;0.000;2024-02-26T07:42:10;12.20;99.90
66710;DHT22;53624;0.000;0.000;2024-02-26T07:44:37;12.20;99.90
66710;DHT22;53624;0.000;0.000;2024-02-26T07:47:04;12.20;99.90
66710;DHT22;53624;0.000;0.000;2024-02-26T07:49:33;12.20;99.90
66710;DHT22;53624;0.000;0.000;2024-02-26T07:52:00;12.20;99.90
66710;DHT22;53624;0.000;0.000;2024-02-26T07:54:27;12.20;99.90
66710;DHT22;53624;0.000;0.000;2024-02-26T07:56:54;12.30;99.90
66710;DHT22;53624;0.000;0.000;2024-02-26T07:59:21;12.30;99.90
66710;DHT22;53624;0.000;0.000;2024-02-26T08:01:51;12.30;99.90
66710;DHT22;53624;0.000;0.000;2024-02-26T08:04:19;12.30;99.90
66710;DHT22;53624;0.000;0.000;2024-02-26T08:06:47;12.30;99.90
66710;DHT22;53624;0.000;0.000;2024-02-26T08:09:14;12.30;99.90
66710;DHT22;53624;0.000;0.000;2024-02-26T08:11:42;12.40;99.90
66710;DHT22;53624;0.000;0.000;2024-02-26T08:14:09;12.40;99.90
66710;DHT22;53624;0.000;0.000;2024-02-26T08:16:36;12.40;99.90
66710;DHT22;53624;0.000;0.000;2024-02-26T08:19:03;12.40;99.90
66710;DHT22;53624;0.000;0.000;2024-02-26T08:21:30;12.40;99.90
66710;DHT22;53624;0.000;0.000;2024-02-26T08:23:59;12.40;99.90
66710;DHT22;53624;0.000;0.000;2024-02-26T08:26:26;12.50;99.90
66710;DHT22;53624;0.000;0.000;2024-02-26T08:28:53;12.50;99.90
66710;DHT22;53624;0.000;0.000;2024-02-26T08:31:21;12.50;99.90
66710;DHT22;53624;0.000;0.000;2024-02-26T08:33:49;12.50;99.90
66710;DHT22;53624;0.000;0.000;2024-02-26T08:36:16;12.50;99.90
66710;DHT22;53624;0.000;0.000;2024-02-26T08:38:43;12.60;99.90
66710;DHT22;53624;0.000;0.000;2024-02-26T08:41:12;12.60;99.90
66710;DHT22;53624;0.000;0.000;2024-02-26T08:43:39;12.60;99.90
66710;DHT22;53624;0.000;0.000;2024-02-26T08:46:08;12.60;99.90
66710;DHT22;53624;0.000;0.000;2024-02-26T08:48:35;12.60;99.90
66710;DHT22;53624;0.000;0.000;2024-02-26T08:51:04;12.70;99.90
66710;DHT22;53624;0.000;0.000;2024-02-26T08:53:31;12.70;99.90
66710;DHT22;53624;0.000;0.000;2024-02-26T08:55:58;12.70;99.90
66710;DHT22;53624;0.000;0.000;2024-02-26T08:58:27;12.70;99.90
66710;DHT22;53624;0.000;0.000;2024-02-26T09:00:55;12.70;99.90
66710;DHT22;53624;0.000;0.000;2024-02-26T09:03:22;12.80;99.90
66710;DHT22;53624;0.000;0.000;2024-02-26T09:05:49;12.80;99.90
66710;DHT22;53624;0.000;0.000;2024-02-26T09:08:16;12.80;99.90
66710;DHT22;53624;0.000;0.000;2024-02-26T09:10:43;12.90;99.90
66710;DHT22;53624;0.000;0.000;2024-02-26T09:13:11;12.90;99.90
66710;DHT22;53624;0.000;0.000;2024-02-26T09:15:39;12.90;99.90
66710;DHT22;53624;0.000;0.000;2024-02-26T09:18:06;13.00;99.90
66710;DHT22;53624;0.000;0.000;2024-02-26T09:20:33;13.00;99.90
66710;DHT22;53624;0.000;0.000;2024-02-26T09:23:01;13.00;99.90
66710;DHT22;53624;0.000;0.000;2024-02-26T09:25:28;13.00;99.90
66710;DHT22;53624;0.000;0.000;2024-02-26T09:27:55;13.10;99.90
66710;DHT22;53624;0.000;0.000;2024-02-26T09:30:22;13.20;99.90
66710;DHT22;53624;0.000;0.000;2024-02-26T09:32:51;13.40;99.90
66710;DHT22;53624;0.000;0.000;2024-02-26T09:35:18;13.50;99.90
66710;DHT22;53624;0.000;0.000;2024-02-26T09:37:47;13.70;99.90
66710;DHT22;53624;0.000;0.000;2024-02-26T09:40:15;14.00;99.90
66710;DHT22;53624;0.000;0.000;2024-02-26T09:42:42;14.20;99.90
66710;DHT22;53624;0.000;0.000;2024-02-26T09:45:11;14.30;99.90
66710;DHT22;53624;0.000;0.000;2024-02-26T09:47:39;14.40;99.90
66710;DHT22;53624;0.000;0.000;2024-02-26T09:50:09;14.60;99.90
66710;DHT22;53624;0.000;0.000;2024-02-26T09:52:38;14.60;99.90
66710;DHT22;53624;0.000;0.000;2024-02-26T09:55:07;14.50;99.90
66710;DHT22;53624;0.000;0.000;2024-02-26T09:57:35;14.70;99.90
66710;DHT22;53624;0.000;0.000;2024-02-26T10:00:04;14.90;99.90
66710;DHT22;53624;0.000;0.000;2024-02-26T10:02:34;15.10;99.90
66710;DHT22;53624;0.000;0.000;2024-02-26T10:05:03;15.20;99.90
66710;DHT22;53624;0.000;0.000;2024-02-26T10:07:33;15.30;99.80
66710;DHT22;53624;0.000;0.000;2024-02-26T10:10:01;15.40;99.90
66710;DHT22;53624;0.000;0.000;2024-02-26T10:12:28;15.30;99.90
66710;DHT22;53624;0.000;0.000;2024-02-26T10:14:57;15.30;99.90
66710;DHT22;53624;0.000;0.000;2024-02-26T10:17:24;15.40;99.90
66710;DHT22;53624;0.000;0.000;2024-02-26T10:19:51;15.50;99.90
66710;DHT22;53624;0.000;0.000;2024-02-26T10:22:22;15.70;99.80
66710;DHT22;53624;0.000;0.000;2024-02-26T10:24:50;15.70;99.80
66710;DHT22;53624;0.000;0.000;2024-02-26T10:27:18;15.80;99.80
66710;DHT22;53624;0.000;0.000;2024-02-26T10:29:45;16.10;99.40
66710;DHT22;53624;0.000;0.000;2024-02-26T10:32:13;16.30;99.20
66710;DHT22;53624;0.000;0.000;2024-02-26T10:34:40;16.40;99.20
66710;DHT22;53624;0.000;0.000;2024-02-26T10:37:09;16.70;98.90
66710;DHT22;53624;0.000;0.000;2024-02-26T10:39:36;17.10;98.40
66710;DHT22;53624;0.000;0.000;2024-02-26T10:42:05;17.40;98.10
66710;DHT22;53624;0.000;0.000;2024-02-26T10:44:35;17.60;97.90
66710;DHT22;53624;0.000;0.000;2024-02-26T10:47:02;18.00;97.70
66710;DHT22;53624;0.000;0.000;2024-02-26T10:49:30;18.20;97.40
66710;DHT22;53624;0.000;0.000;2024-02-26T10:51:57;18.50;97.20
66710;DHT22;53624;0.000;0.000;2024-02-26T10:54:25;18.80;97.00
66710;DHT22;53624;0.000;0.000;2024-02-26T10:56:53;19.00;96.90
66710;DHT22;53624;0.000;0.000;2024-02-26T10:59:23;18.90;97.00
66710;DHT22;53624;0.000;0.000;2024-02-26T11:01:51;19.20;97.20
66710;DHT22;53624;0.000;0.000;2024-02-26T11:04:18;20.50;95.50
66710;DHT22;53624;0.000;0.000;2024-02-26T11:06:46;21.40;94.00
66710;DHT22;53624;0.000;0.000;2024-02-26T11:09:14;22.10;93.00
66710;DHT22;53624;0.000;0.000;2024-02-26T11:11:42;22.50;92.50
66710;DHT22;53624;0.000;0.000;2024-02-26T11:14:09;22.90;92.00
66710;DHT22;53624;0.000;0.000;2024-02-26T11:16:38;23.20;91.60
66710;DHT22;53624;0.000;0.000;2024-02-26T11:19:06;23.30;91.40
66710;DHT22;53624;0.000;0.000;2024-02-26T11:21:33;23.10;91.70
66710;DHT22;53624;0.000;0.000;2024-02-26T11:24:07;22.80;92.20
66710;DHT22;53624;0.000;0.000;2024-02-26T11:26:36;22.70;92.60
66710;DHT22;53624;0.000;0.000;2024-02-26T11:29:05;22.60;93.10
66710;DHT22;53624;0.000;0.000;2024-02-26T11:31:38;22.50;93.40
66710;DHT22;53624;0.000;0.000;2024-02-26T11:34:06;22.60;93.50
66710;DHT22;53624;0.000;0.000;2024-02-26T11:36:33;22.80;93.60
66710;DHT22;53624;0.000;0.000;2024-02-26T11:39:00;23.10;93.40
66710;DHT22;53624;0.000;0.000;2024-02-26T11:41:28;23.60;92.90
66710;DHT22;53624;0.000;0.000;2024-02-26T11:43:57;24.60;91.90
66710;DHT22;53624;0.000;0.000;2024-02-26T11:46:27;25.30;90.90
66710;DHT22;53624;0.000;0.000;2024-02-26T11:49:00;24.90;91.00
66710;DHT22;53624;0.000;0.000;2024-02-26T11:51:27;24.40;91.70
66710;DHT22;53624;0.000;0.000;2024-02-26T11:53:54;24.20;92.20
66710;DHT22;53624;0.000;0.000;2024-02-26T11:56:24;24.00;92.70
66710;DHT22;53624;0.000;0.000;2024-02-26T11:58:53;24.10;92.80
66710;DHT22;53624;0.000;0.000;2024-02-26T12:04:08;24.80;92.00
66710;DHT22;53624;0.000;0.000;2024-02-26T12:06:41;25.20;91.60
66710;DHT22;53624;0.000;0.000;2024-02-26T12:09:09;25.10;91.70
66710;DHT22;53624;0.000;0.000;2024-02-26T12:11:39;24.80;92.10
66710;DHT22;53624;0.000;0.000;2024-02-26T12:14:07;24.20;93.00
66710;DHT22;53624;0.000;0.000;2024-02-26T12:16:35;24.40;93.10
66710;DHT22;53624;0.000;0.000;2024-02-26T12:19:03;24.10;93.40
66710;DHT22;53624;0.000;0.000;2024-02-26T12:21:32;24.10;93.60
66710;DHT22;53624;0.000;0.000;2024-02-26T12:24:06;24.30;93.20
66710;DHT22;53624;0.000;0.000;2024-02-26T12:26:34;24.50;93.00
66710;DHT22;53624;0.000;0.000;2024-02-26T12:29:02;24.70;92.80
66710;DHT22;53624;0.000;0.000;2024-02-26T12:31:29;25.00;92.40
66710;DHT22;53624;0.000;0.000;2024-02-26T12:33:57;25.30;92.20
66710;DHT22;53624;0.000;0.000;2024-02-26T12:36:24;25.30;92.20
66710;DHT22;53624;0.000;0.000;2024-02-26T12:38:52;25.50;92.10
66710;DHT22;53624;0.000;0.000;2024-02-26T12:41:20;25.50;92.20
66710;DHT22;53624;0.000;0.000;2024-02-26T12:43:47;25.70;92.20
66710;DHT22;53624;0.000;0.000;2024-02-26T12:46:14;25.80;92.00
66710;DHT22;53624;0.000;0.000;2024-02-26T12:48:42;25.80;92.20
66710;DHT22;53624;0.000;0.000;2024-02-26T12:51:09;25.90;92.00
66710;DHT22;53624;0.000;0.000;2024-02-26T12:53:37;26.10;92.00
66710;DHT22;53624;0.000;0.000;2024-02-26T12:56:06;26.30;91.80
66710;DHT22;53624;0.000;0.000;2024-02-26T12:58:34;26.50;91.70
66710;DHT22;53624;0.000;0.000;2024-02-26T13:01:04;26.70;91.60
66710;DHT22;53624;0.000;0.000;2024-02-26T13:03:31;26.40;91.70
66710;DHT22;53624;0.000;0.000;2024-02-26T13:05:58;26.10;91.90
66710;DHT22;53624;0.000;0.000;2024-02-26T13:08:26;25.80;92.40
66710;DHT22;53624;0.000;0.000;2024-02-26T13:10:53;25.40;92.50
66710;DHT22;53624;0.000;0.000;2024-02-26T13:13:22;25.10;92.90
66710;DHT22;53624;0.000;0.000;2024-02-26T13:15:49;24.80;93.20
66710;DHT22;53624;0.000;0.000;2024-02-26T13:18:16;24.60;93.40
66710;DHT22;53624;0.000;0.000;2024-02-26T13:20:43;24.40;93.50
66710;DHT22;53624;0.000;0.000;2024-02-26T13:23:11;24.20;93.70
66710;DHT22;53624;0.000;0.000;2024-02-26T13:25:38;24.00;93.70
66710;DHT22;53624;0.000;0.000;2024-02-26T13:28:07;23.90;93.90
66710;DHT22;53624;0.000;0.000;2024-02-26T13:30:36;23.90;94.00
66710;DHT22;53624;0.000;0.000;2024-02-26T13:33:09;23.70;94.10
66710;DHT22;53624;0.000;0.000;2024-02-26T13:35:37;23.50;94.00
66710;DHT22;53624;0.000;0.000;2024-02-26T13:38:04;23.40;94.30
66710;DHT22;53624;0.000;0.000;2024-02-26T13:40:32;23.30;94.40
66710;DHT22;53624;0.000;0.000;2024-02-26T13:42:59;23.40;94.20
66710;DHT22;53624;0.000;0.000;2024-02-26T13:45:27;23.60;93.80
66710;DHT22;53624;0.000;0.000;2024-02-26T13:48:05;23.70;93.50
66710;DHT22;53624;0.000;0.000;2024-02-26T13:50:33;23.80;93.20
66710;DHT22;53624;0.000;0.000;2024-02-26T13:53:00;24.00;92.90
66710;DHT22;53624;0.000;0.000;2024-02-26T13:55:29;24.20;92.70
66710;DHT22;53624;0.000;0.000;2024-02-26T13:57:58;24.20;92.40
66710;DHT22;53624;0.000;0.000;2024-02-26T14:00:26;24.00;92.50
66710;DHT22;53624;0.000;0.000;2024-02-26T14:02:54;23.90;92.60
66710;DHT22;53624;0.000;0.000;2024-02-26T14:05:22;23.60;92.80
66710;DHT22;53624;0.000;0.000;2024-02-26T14:07:49;23.50;92.90
66710;DHT22;53624;0.000;0.000;2024-02-26T14:10:17;23.40;93.00
66710;DHT22;53624;0.000;0.000;2024-02-26T14:12:44;23.20;93.20
66710;DHT22;53624;0.000;0.000;2024-02-26T14:15:11;23.00;93.40
66710;DHT22;53624;0.000;0.000;2024-02-26T14:17:38;22.90;93.60
66710;DHT22;53624;0.000;0.000;2024-02-26T14:20:06;22.70;93.70
66710;DHT22;53624;0.000;0.000;2024-02-26T14:22:35;22.60;93.70
66710;DHT22;53624;0.000;0.000;2024-02-26T14:25:02;22.50;93.80
66710;DHT22;53624;0.000;0.000;2024-02-26T14:27:29;22.40;94.10
66710;DHT22;53624;0.000;0.000;2024-02-26T14:29:56;22.20;94.20
66710;DHT22;53624;0.000;0.000;2024-02-26T14:32:23;22.00;94.80
66710;DHT22;53624;0.000;0.000;2024-02-26T14:34:51;21.90;94.60
66710;DHT22;53624;0.000;0.000;2024-02-26T14:37:18;21.80;94.70
66710;DHT22;53624;0.000;0.000;2024-02-26T14:39:47;21.70;94.90
66710;DHT22;53624;0.000;0.000;2024-02-26T14:42:15;21.60;94.90
66710;DHT22;53624;0.000;0.000;2024-02-26T14:44:43;21.60;95.00
66710;DHT22;53624;0.000;0.000;2024-02-26T14:47:12;21.60;95.10
66710;DHT22;53624;0.000;0.000;2024-02-26T14:49:39;21.50;95.10
66710;DHT22;53624;0.000;0.000;2024-02-26T14:52:06;21.40;95.20
66710;DHT22;53624;0.000;0.000;2024-02-26T14:54:33;21.20;95.30
66710;DHT22;53624;0.000;0.000;2024-02-26T14:57:05;21.20;95.30
66710;DHT22;53624;0.000;0.000;2024-02-26T14:59:33;21.10;95.40
66710;DHT22;53624;0.000;0.000;2024-02-26T15:02:02;21.00;95.50
66710;DHT22;53624;0.000;0.000;2024-02-26T15:04:29;20.90;95.50
66710;DHT22;53624;0.000;0.000;2024-02-26T15:06:56;20.90;95.50
66710;DHT22;53624;0.000;0.000;2024-02-26T15:09:23;20.80;96.00
66710;DHT22;53624;0.000;0.000;2024-02-26T15:11:51;20.80;95.60
66710;DHT22;53624;0.000;0.000;2024-02-26T15:14:19;20.70;95.60
66710;DHT22;53624;0.000;0.000;2024-02-26T15:16:46;20.70;95.70
66710;DHT22;53624;0.000;0.000;2024-02-26T15:19:13;20.60;95.70
66710;DHT22;53624;0.000;0.000;2024-02-26T15:21:44;20.60;95.90
66710;DHT22;53624;0.000;0.000;2024-02-26T15:24:11;20.50;95.80
66710;DHT22;53624;0.000;0.000;2024-02-26T15:26:38;20.50;95.90
66710;DHT22;53624;0.000;0.000;2024-02-26T15:29:06;20.40;96.00
66710;DHT22;53624;0.000;0.000;2024-02-26T15:31:36;20.40;96.20
66710;DHT22;53624;0.000;0.000;2024-02-26T15:34:03;20.30;96.20
66710;DHT22;53624;0.000;0.000;2024-02-26T15:36:30;20.20;96.50
66710;DHT22;53624;0.000;0.000;2024-02-26T15:38:58;20.20;96.30
66710;DHT22;53624;0.000;0.000;2024-02-26T15:41:25;20.10;96.30
66710;DHT22;53624;0.000;0.000;2024-02-26T15:43:52;20.00;96.40
66710;DHT22;53624;0.000;0.000;2024-02-26T15:46:19;19.90;96.50
66710;DHT22;53624;0.000;0.000;2024-02-26T15:48:48;19.90;96.50
66710;DHT22;53624;0.000;0.000;2024-02-26T15:51:18;19.80;96.50